This is the latest recevied weather packets stored in our database for station/object DO7VLR-5. If no packets are shown the sender has not sent any weather packets the latest 10 day(s).
| Time | Temp. | Humidity | Pressure | Rain* | Wind** | Luminosity | Snow |
|---|---|---|---|---|---|---|---|
| 1788571817 | 17.22° C | 92% | 1019.2 hPa | 0 mm | - | - | - |
| 1788570017 | 17.78° C | 91% | 1019.2 hPa | 0 mm | - | - | - |
| 1788568217 | 18.33° C | 89% | 1018.7 hPa | 0.25 mm | - | - | - |
| 1788566417 | 18.89° C | 88% | 1018.8 hPa | 0.25 mm | - | - | - |
| 1788564618 | 20.56° C | 80% | 1018.6 hPa | 0 mm | - | - | - |
| 1788562817 | 21.11° C | 74% | 1018.3 hPa | 0 mm | - | - | - |
| 1788561018 | 22.22° C | 68% | 1017.9 hPa | 0 mm | - | - | - |
| 1788559216 | 22.78° C | 66% | 1017.6 hPa | 0 mm | - | - | - |
| 1788557415 | 23.33° C | 66% | 1017.3 hPa | 0 mm | - | - | - |
| 1788555617 | 23.33° C | 65% | 1017 hPa | 0 mm | - | - | - |
| 1788553817 | 23.33° C | 66% | 1016.9 hPa | 0 mm | - | - | - |
| 1788552018 | 23.89° C | 67% | 1016.4 hPa | 0 mm | - | - | - |
| 1788550217 | 24.44° C | 65% | 1016.2 hPa | 0 mm | - | - | - |
| 1788548417 | 24.44° C | 64% | 1015.8 hPa | 0 mm | - | - | - |
| 1788546617 | 25.56° C | 60% | 1015.2 hPa | 0 mm | - | - | - |
| 1788544817 | 26.11° C | 58% | 1014.8 hPa | 0 mm | - | - | - |
| 1788543019 | 27.78° C | 52% | 1014.8 hPa | 0 mm | - | - | - |
| 1788541217 | 27.78° C | 51% | 1014.7 hPa | 0 mm | - | - | - |
| 1788539417 | 28.89° C | 49% | 1014.7 hPa | 0 mm | - | - | - |
| 1788537617 | 29.44° C | 47% | 1014.9 hPa | 0 mm | - | - | - |
| 1788535816 | 29.44° C | 47% | 1015 hPa | 0 mm | - | - | - |
| 1788534016 | 30° C | 45% | 1014.8 hPa | 0 mm | - | - | - |
| 1788532216 | 30° C | 44% | 1014.9 hPa | 0 mm | - | - | - |
| 1788530416 | 30° C | 44% | 1015 hPa | 0 mm | - | - | - |
| 1788528616 | 30° C | 45% | 1015.2 hPa | 0 mm | - | - | - |
* Rain latest hour (hover to see other rain measurements)
** Current wind speed in m/s (hover to see current wind gust speed)